Time;durP1;ratioP1;P1;durP2;ratioP2;P2;SDS_P1;SDS_P2;PMS_P1;PMS_P2;Temp;Humidity;BMP_temperature;BMP_pressure;BME280_temperature;BME280_humidity;BME280_pressure;Samples;Min_cycle;Max_cycle;Signal;HPM_P1;HPM_P2
2022/03/22 00:00:44;;;;;;;8.50;2.50;;;22.50;99.90;;;;;;4885503;29;20548;-77
2022/03/22 00:03:11;;;;;;;7.50;2.80;;;22.60;99.90;;;;;;4917622;29;20123;-76
2022/03/22 00:05:40;;;;;;;5.60;2.55;;;22.70;99.90;;;;;;4900048;29;20111;-76
2022/03/22 00:08:08;;;;;;;6.95;2.42;;;22.80;99.90;;;;;;4900086;29;20463;-77
2022/03/22 00:10:36;;;;;;;7.85;2.20;;;22.90;99.90;;;;;;4917322;29;20024;-75
2022/03/22 00:13:05;;;;;;;15.18;2.70;;;23.00;99.90;;;;;;4916360;29;20036;-76
2022/03/22 00:15:34;;;;;;;7.00;2.40;;;23.10;99.90;;;;;;4916959;29;20064;-77
2022/03/22 00:18:02;;;;;;;7.93;3.03;;;23.10;99.90;;;;;;4916480;29;20028;-78
2022/03/22 00:20:30;;;;;;;7.40;2.25;;;23.20;99.90;;;;;;4916877;29;20051;-76
2022/03/22 00:22:59;;;;;;;4.90;2.08;;;23.30;99.90;;;;;;4899849;29;20032;-81
2022/03/22 00:25:27;;;;;;;5.60;2.33;;;23.40;99.90;;;;;;4916742;29;20027;-76
2022/03/22 00:27:55;;;;;;;11.05;4.75;;;23.50;99.90;;;;;;4899360;29;20222;-78
2022/03/22 00:30:28;;;;;;;8.60;2.80;;;23.60;99.90;;;;;;4899289;29;20095;-81
2022/03/22 00:32:57;;;;;;;10.02;2.65;;;23.70;99.90;;;;;;4916035;29;20028;-83
2022/03/22 00:35:27;;;;;;;6.82;2.45;;;23.70;99.90;;;;;;4900207;29;20032;-80
2022/03/22 00:37:57;;;;;;;5.95;2.88;;;23.80;99.90;;;;;;4899514;29;20024;-79
2022/03/22 00:40:28;;;;;;;5.38;2.33;;;23.90;99.90;;;;;;4899909;29;20037;-76
2022/03/22 00:42:56;;;;;;;7.45;2.58;;;24.10;99.90;;;;;;4916308;29;20158;-76
2022/03/22 00:45:32;;;;;;;5.95;2.03;;;24.20;99.90;;;;;;4899483;29;20055;-75
2022/03/22 00:48:00;;;;;;;8.00;2.35;;;24.40;99.90;;;;;;4916215;29;20516;-76
2022/03/22 00:50:33;;;;;;;6.90;2.40;;;24.50;99.90;;;;;;4916376;29;20059;-75
2022/03/22 00:53:02;;;;;;;6.00;2.45;;;24.60;99.90;;;;;;4899471;29;20246;-76
2022/03/22 00:55:29;;;;;;;7.70;2.30;;;24.70;99.90;;;;;;4899581;29;20396;-75
2022/03/22 00:57:57;;;;;;;4.60;2.35;;;24.80;99.90;;;;;;4915440;29;20024;-75
2022/03/22 01:00:26;;;;;;;15.15;3.20;;;24.90;99.90;;;;;;4899222;29;20171;-75
2022/03/22 01:02:59;;;;;;;6.28;1.88;;;25.00;99.90;;;;;;4899233;29;20153;-75
2022/03/22 01:05:28;;;;;;;7.45;2.38;;;25.10;99.70;;;;;;4916302;29;20031;-75
2022/03/22 01:07:57;;;;;;;5.80;2.83;;;25.20;99.90;;;;;;4899069;29;20068;-76
2022/03/22 01:10:27;;;;;;;4.78;2.78;;;25.30;99.50;;;;;;4916149;29;20024;-78
2022/03/22 01:12:55;;;;;;;5.38;1.88;;;25.40;99.30;;;;;;4916321;29;20429;-78
2022/03/22 01:15:32;;;;;;;3.00;1.88;;;25.50;99.00;;;;;;4916020;29;20408;-74
2022/03/22 01:18:05;;;;;;;7.03;2.30;;;25.60;99.00;;;;;;4915724;29;20028;-75
2022/03/22 01:20:37;;;;;;;4.40;2.40;;;25.70;99.20;;;;;;4916341;29;20035;-76
2022/03/22 01:23:10;;;;;;;4.03;2.22;;;25.90;99.00;;;;;;4916199;29;20024;-75
2022/03/22 01:25:39;;;;;;;5.03;1.90;;;26.00;98.70;;;;;;4915947;29;20103;-75
2022/03/22 01:28:08;;;;;;;8.13;2.38;;;26.10;98.30;;;;;;4915450;29;20035;-75
2022/03/22 01:30:37;;;;;;;6.72;2.35;;;26.30;98.40;;;;;;4916205;29;20091;-76
2022/03/22 01:33:05;;;;;;;5.25;2.13;;;26.30;98.00;;;;;;4916108;29;20123;-75
2022/03/22 01:35:33;;;;;;;5.18;2.30;;;26.40;97.70;;;;;;4898509;29;20021;-75
2022/03/22 01:38:01;;;;;;;7.13;1.98;;;26.60;97.50;;;;;;4916211;29;20071;-76
2022/03/22 01:40:30;;;;;;;7.10;2.03;;;26.60;96.90;;;;;;4916005;29;20128;-76
2022/03/22 01:42:58;;;;;;;8.40;2.55;;;26.70;97.90;;;;;;4915436;29;20108;-76
2022/03/22 01:45:26;;;;;;;5.05;2.22;;;26.90;97.10;;;;;;4913699;29;20028;-76
2022/03/22 01:47:58;;;;;;;4.90;2.13;;;27.00;96.80;;;;;;4913220;29;20371;-77
2022/03/22 01:50:25;;;;;;;6.45;1.83;;;27.10;96.50;;;;;;4896995;29;20254;-76
2022/03/22 01:52:54;;;;;;;10.30;2.60;;;27.30;95.70;;;;;;4914225;29;20394;-77
2022/03/22 01:55:23;;;;;;;6.90;2.08;;;27.30;95.30;;;;;;4914585;29;20048;-76
2022/03/22 01:57:51;;;;;;;8.75;2.42;;;27.50;95.60;;;;;;4914198;29;20024;-76
2022/03/22 02:00:20;;;;;;;5.00;1.95;;;27.70;94.90;;;;;;4915949;29;20024;-76
2022/03/22 02:05:55;;;;;;;9.18;2.28;;;28.10;95.30;;;;;;4915981;29;20523;-74
2022/03/22 02:08:30;;;;;;;8.75;2.63;;;28.40;95.50;;;;;;4898821;29;20122;-74
2022/03/22 02:10:59;;;;;;;11.30;2.60;;;28.50;95.30;;;;;;4898840;29;20028;-75
2022/03/22 02:13:28;;;;;;;11.68;2.38;;;28.60;94.70;;;;;;4915567;29;20075;-74
2022/03/22 02:15:59;;;;;;;6.75;2.83;;;28.70;94.00;;;;;;4915474;29;20453;-76
2022/03/22 02:18:27;;;;;;;9.38;2.92;;;28.80;95.90;;;;;;4915383;29;20028;-75
2022/03/22 02:20:55;;;;;;;6.05;2.35;;;28.90;94.70;;;;;;4915600;29;20028;-75
2022/03/22 02:23:44;;;;;;;7.90;2.90;;;29.00;94.70;;;;;;4915888;29;20393;-76
2022/03/22 02:26:12;;;;;;;11.65;4.53;;;29.10;94.00;;;;;;4898804;29;20028;-74
2022/03/22 02:28:41;;;;;;;12.57;3.08;;;29.10;93.20;;;;;;4915380;29;20044;-75
2022/03/22 02:31:09;;;;;;;8.15;2.70;;;29.10;94.90;;;;;;4898731;29;20028;-75
2022/03/22 02:33:41;;;;;;;8.98;2.17;;;29.20;93.60;;;;;;4898824;29;20047;-76
2022/03/22 02:36:09;;;;;;;9.20;2.33;;;29.40;93.40;;;;;;4919053;29;20024;-75
2022/03/22 02:38:36;;;;;;;9.35;2.60;;;29.50;93.20;;;;;;4907089;29;20028;-76
2022/03/22 02:41:05;;;;;;;11.38;2.70;;;29.40;93.80;;;;;;4901913;29;20481;-75
2022/03/22 02:43:33;;;;;;;9.10;2.00;;;29.40;93.50;;;;;;4921005;29;20126;-74
2022/03/22 02:46:00;;;;;;;9.88;2.30;;;29.30;93.40;;;;;;4919734;29;20028;-76
2022/03/22 02:48:27;;;;;;;8.48;2.00;;;29.60;94.00;;;;;;4919253;29;20035;-75
2022/03/22 02:50:56;;;;;;;7.35;2.33;;;29.90;93.10;;;;;;4901896;29;20024;-75
2022/03/22 02:53:23;;;;;;;9.05;2.40;;;30.10;93.30;;;;;;4902140;29;20467;-76
2022/03/22 02:55:50;;;;;;;10.88;1.88;;;30.40;92.10;;;;;;4919450;29;20024;-75
2022/03/22 02:58:18;;;;;;;7.00;2.47;;;30.80;91.70;;;;;;4919194;29;20031;-76
2022/03/22 03:00:45;;;;;;;6.20;1.98;;;31.20;92.10;;;;;;4918977;29;20473;-75
2022/03/22 03:03:13;;;;;;;10.05;2.67;;;31.80;90.90;;;;;;4919085;29;20581;-76
2022/03/22 03:05:40;;;;;;;6.05;2.65;;;32.30;89.20;;;;;;4919288;29;20052;-75
2022/03/22 03:08:07;;;;;;;10.35;2.28;;;32.60;89.70;;;;;;4919140;29;20115;-75
2022/03/22 03:10:35;;;;;;;8.60;2.45;;;33.20;86.20;;;;;;4918950;29;20021;-75
2022/03/22 03:13:04;;;;;;;7.05;2.58;;;33.30;85.20;;;;;;4918950;29;20120;-74
2022/03/22 03:15:32;;;;;;;7.00;2.33;;;33.30;84.70;;;;;;4918315;29;20047;-75
2022/03/22 03:18:00;;;;;;;10.05;1.98;;;33.90;84.70;;;;;;4918622;29;20410;-75
2022/03/22 03:20:28;;;;;;;8.95;2.03;;;34.10;82.60;;;;;;4901583;29;20056;-75
2022/03/22 03:22:56;;;;;;;8.15;2.03;;;34.30;81.40;;;;;;4918409;29;20099;-75
2022/03/22 03:25:24;;;;;;;9.32;2.05;;;34.30;81.60;;;;;;4918645;29;20059;-75
2022/03/22 03:27:52;;;;;;;11.50;3.17;;;34.70;80.70;;;;;;4901232;29;20025;-75
2022/03/22 03:30:20;;;;;;;9.40;1.85;;;34.90;78.60;;;;;;4901275;29;20028;-76
2022/03/22 03:32:48;;;;;;;5.38;1.85;;;35.30;78.70;;;;;;4918299;29;20031;-75
2022/03/22 03:35:15;;;;;;;8.48;2.30;;;35.60;76.20;;;;;;4918562;29;20027;-77
2022/03/22 03:37:43;;;;;;;6.97;1.90;;;35.80;76.10;;;;;;4918445;29;20425;-74
2022/03/22 03:40:12;;;;;;;7.55;2.55;;;36.00;76.00;;;;;;4918434;29;20024;-74
2022/03/22 03:42:43;;;;;;;8.90;2.35;;;36.10;74.70;;;;;;4918341;29;20024;-74
2022/03/22 03:47:58;;;;;;;6.80;2.38;;;35.10;76.40;;;;;;4917509;29;20041;-75
2022/03/22 03:50:26;;;;;;;5.97;2.40;;;34.90;77.00;;;;;;4917863;29;20070;-74
2022/03/22 03:52:54;;;;;;;9.38;1.98;;;34.60;76.60;;;;;;4899103;29;20032;-74
2022/03/22 03:55:21;;;;;;;11.30;2.38;;;34.20;76.90;;;;;;4900381;29;20040;-75
2022/03/22 03:57:49;;;;;;;9.13;2.22;;;34.30;78.20;;;;;;4917470;29;20024;-78
2022/03/22 04:00:17;;;;;;;10.63;1.95;;;34.70;76.40;;;;;;4917360;29;20024;-76
2022/03/22 04:02:44;;;;;;;16.10;3.45;;;34.60;77.20;;;;;;4932713;29;20107;-76
2022/03/22 04:05:12;;;;;;;8.05;1.90;;;34.60;77.10;;;;;;4934709;29;20043;-78
2022/03/22 04:07:40;;;;;;;7.43;1.90;;;34.90;75.80;;;;;;4933598;29;20111;-75
2022/03/22 04:10:08;;;;;;;11.27;2.75;;;35.20;76.20;;;;;;4944168;29;20047;-76
2022/03/22 04:12:45;;;;;;;8.77;2.63;;;35.70;76.10;;;;;;4921495;29;20444;-77
2022/03/22 04:15:12;;;;;;;6.03;1.90;;;35.80;73.80;;;;;;4935737;29;20412;-76
2022/03/22 04:17:41;;;;;;;7.40;2.20;;;36.10;74.60;;;;;;4935534;29;20106;-76
2022/03/22 04:20:10;;;;;;;7.47;2.47;;;36.20;72.90;;;;;;4933838;29;20023;-76
2022/03/22 04:22:37;;;;;;;8.68;2.15;;;36.00;72.90;;;;;;4935556;29;20020;-75
2022/03/22 04:25:06;;;;;;;5.65;1.60;;;35.90;72.90;;;;;;4918305;29;20090;-75
2022/03/22 04:33:03;;;;;;;10.73;2.85;;;36.20;73.60;;;;;;4935456;29;20057;-74
2022/03/22 04:35:31;;;;;;;12.88;2.10;;;36.60;72.50;;;;;;4934950;29;20027;-76
2022/03/22 04:37:58;;;;;;;8.13;1.90;;;36.20;72.30;;;;;;4935224;29;20028;-76
2022/03/22 04:40:26;;;;;;;5.97;1.70;;;35.60;74.10;;;;;;4914702;29;20031;-75
2022/03/22 04:42:53;;;;;;;6.00;1.60;;;35.70;73.40;;;;;;4935275;29;20028;-75
2022/03/22 04:45:21;;;;;;;9.00;1.95;;;35.70;73.00;;;;;;4918031;29;20023;-75
2022/03/22 04:47:49;;;;;;;8.60;1.77;;;35.80;72.70;;;;;;4933319;29;20047;-75
2022/03/22 04:50:17;;;;;;;11.07;2.13;;;36.10;72.70;;;;;;4917104;29;20035;-74
2022/03/22 04:58:37;;;;;;;11.93;2.05;;;35.80;72.70;;;;;;4877015;29;20033;-74
2022/03/22 05:01:05;;;;;;;10.98;2.50;;;35.60;73.50;;;;;;4876311;29;20113;-73
2022/03/22 05:03:32;;;;;;;9.20;2.20;;;35.40;73.40;;;;;;4895518;29;20036;-72
2022/03/22 05:08:45;;;;;;;10.25;2.53;;;35.50;73.60;;;;;;4934339;29;20038;-75
2022/03/22 05:11:12;;;;;;;9.00;1.83;;;35.50;73.10;;;;;;4934828;29;20024;-76
2022/03/22 05:13:40;;;;;;;7.63;2.13;;;35.20;74.00;;;;;;4934523;29;20040;-77
2022/03/22 05:16:08;;;;;;;9.23;1.92;;;35.30;74.30;;;;;;4934628;29;20046;-77
2022/03/22 05:18:36;;;;;;;8.43;2.42;;;34.90;74.80;;;;;;4934069;29;20027;-76
2022/03/22 05:21:04;;;;;;;7.38;2.03;;;35.20;74.30;;;;;;4917721;29;20034;-77
2022/03/22 05:23:33;;;;;;;10.77;2.60;;;35.10;74.30;;;;;;4917335;29;20487;-76
2022/03/22 05:26:08;;;;;;;6.70;2.05;;;35.30;74.50;;;;;;4935149;29;20054;-77
2022/03/22 05:28:37;;;;;;;12.45;2.97;;;35.70;74.60;;;;;;4922388;29;20334;-75
2022/03/22 05:31:05;;;;;;;9.10;2.58;;;35.80;74.00;;;;;;4929174;29;20016;-76
2022/03/22 05:33:32;;;;;;;10.50;2.38;;;36.00;72.50;;;;;;4914140;29;20557;-76
2022/03/22 05:36:00;;;;;;;7.32;2.03;;;35.90;73.30;;;;;;4915177;29;20478;-75
2022/03/22 05:38:27;;;;;;;9.13;2.20;;;35.90;73.00;;;;;;4918521;29;20131;-75
2022/03/22 05:40:56;;;;;;;9.80;2.90;;;35.50;73.00;;;;;;4934465;29;20024;-75
2022/03/22 05:43:25;;;;;;;7.57;2.80;;;35.40;73.60;;;;;;4933879;29;20476;-76
2022/03/22 05:45:52;;;;;;;6.43;2.13;;;35.20;73.80;;;;;;4933547;29;20111;-76
2022/03/22 05:48:20;;;;;;;10.68;2.90;;;35.10;74.30;;;;;;4933540;29;20106;-76
2022/03/22 05:50:48;;;;;;;5.75;2.20;;;35.40;73.30;;;;;;4916448;29;20547;-73
2022/03/22 05:53:16;;;;;;;8.20;2.15;;;35.00;73.90;;;;;;4933722;29;20383;-77
2022/03/22 05:55:43;;;;;;;7.35;2.22;;;34.50;74.30;;;;;;4916778;29;20032;-75
2022/03/22 05:58:11;;;;;;;7.38;2.70;;;34.50;75.30;;;;;;4933623;29;20032;-75
2022/03/22 06:00:38;;;;;;;10.07;2.78;;;34.30;75.50;;;;;;4930270;29;20079;-76
2022/03/22 06:03:06;;;;;;;10.02;2.58;;;33.90;76.10;;;;;;4898378;29;20174;-75
2022/03/22 06:05:34;;;;;;;7.50;2.45;;;34.20;75.40;;;;;;4898213;29;20028;-75
2022/03/22 06:08:01;;;;;;;9.40;2.50;;;34.00;76.30;;;;;;4915487;29;20034;-75
2022/03/22 06:10:29;;;;;;;7.10;2.40;;;34.00;76.60;;;;;;4932977;29;20115;-75
2022/03/22 06:12:57;;;;;;;10.35;2.47;;;34.00;76.60;;;;;;4916514;29;20031;-75
2022/03/22 06:15:27;;;;;;;8.75;2.45;;;34.00;76.30;;;;;;4933069;29;20087;-75
2022/03/22 06:18:05;;;;;;;8.48;2.85;;;33.80;76.90;;;;;;4934272;29;20024;-76
2022/03/22 06:20:35;;;;;;;9.20;3.08;;;33.90;76.80;;;;;;4931710;29;20488;-75
2022/03/22 06:23:05;;;;;;;8.52;2.45;;;33.60;77.50;;;;;;4916756;29;20035;-75
2022/03/22 06:25:34;;;;;;;12.90;3.20;;;33.40;77.80;;;;;;4916415;29;20031;-74
2022/03/22 06:28:04;;;;;;;12.85;2.92;;;33.20;78.70;;;;;;4933093;29;20028;-75
2022/03/22 06:30:32;;;;;;;10.32;2.83;;;33.00;78.70;;;;;;4913502;29;20487;-75
2022/03/22 06:33:11;;;;;;;9.32;2.42;;;33.00;79.50;;;;;;4931700;29;20047;-74
2022/03/22 06:35:39;;;;;;;8.18;2.95;;;32.90;79.30;;;;;;4918318;29;20123;-74
2022/03/22 06:38:07;;;;;;;9.68;2.70;;;33.10;79.60;;;;;;4913162;29;20532;-75
2022/03/22 06:40:37;;;;;;;8.23;2.40;;;33.20;78.80;;;;;;4915864;29;20028;-73
2022/03/22 06:43:07;;;;;;;5.85;2.10;;;33.10;79.10;;;;;;4916236;29;20035;-75
2022/03/22 06:45:35;;;;;;;7.97;2.78;;;32.90;79.80;;;;;;4933271;29;20032;-74
2022/03/22 06:48:03;;;;;;;8.18;2.60;;;32.90;79.20;;;;;;4932280;29;20019;-75
2022/03/22 06:50:31;;;;;;;8.35;2.33;;;32.50;79.80;;;;;;4930499;29;20027;-75
2022/03/22 06:52:58;;;;;;;6.32;2.50;;;31.70;81.50;;;;;;4933626;29;20038;-74
2022/03/22 06:55:26;;;;;;;8.18;2.03;;;31.00;83.10;;;;;;4916635;29;20401;-75
2022/03/22 06:57:54;;;;;;;7.72;2.15;;;30.30;85.00;;;;;;4933309;29;20469;-75
2022/03/22 07:00:21;;;;;;;7.65;2.45;;;29.80;86.90;;;;;;4930061;29;20028;-76
2022/03/22 07:02:50;;;;;;;6.88;2.60;;;29.40;87.90;;;;;;4933903;29;20027;-74
2022/03/22 07:05:17;;;;;;;8.65;2.88;;;29.10;89.00;;;;;;4933967;29;20058;-74
2022/03/22 07:07:45;;;;;;;8.55;2.97;;;28.80;90.00;;;;;;4931949;29;20020;-75
2022/03/22 07:10:16;;;;;;;10.85;3.25;;;28.50;90.50;;;;;;4913621;29;20039;-75
2022/03/22 07:12:51;;;;;;;7.40;2.80;;;28.30;90.80;;;;;;4914247;29;20024;-75
2022/03/22 07:15:32;;;;;;;11.35;2.58;;;28.00;91.40;;;;;;4897865;29;20088;-75
2022/03/22 07:18:00;;;;;;;8.48;2.95;;;27.80;91.70;;;;;;4897543;29;20035;-76
2022/03/22 07:20:28;;;;;;;7.22;2.60;;;27.50;92.00;;;;;;4930700;29;20031;-72
2022/03/22 07:22:55;;;;;;;10.25;3.30;;;27.30;92.70;;;;;;4935777;29;20664;-72
2022/03/22 07:25:22;;;;;;;10.13;3.10;;;27.20;93.00;;;;;;4936993;29;20024;-75
2022/03/22 07:27:51;;;;;;;10.77;2.80;;;27.10;93.30;;;;;;4919908;29;20027;-76
2022/03/22 07:30:18;;;;;;;8.13;2.92;;;26.90;93.60;;;;;;4919020;29;20641;-77
2022/03/22 07:32:46;;;;;;;7.75;3.03;;;26.80;93.70;;;;;;4919258;29;20028;-74
2022/03/22 07:35:17;;;;;;;10.73;2.80;;;26.70;94.10;;;;;;4919742;29;20067;-74
2022/03/22 07:37:44;;;;;;;9.10;2.57;;;26.50;94.40;;;;;;4937014;29;20452;-74
2022/03/22 07:40:13;;;;;;;8.63;2.83;;;26.30;94.90;;;;;;4937438;29;20270;-73
2022/03/22 07:42:41;;;;;;;7.20;2.58;;;26.30;95.10;;;;;;4919732;29;20024;-74
2022/03/22 07:45:10;;;;;;;9.32;3.00;;;26.20;95.20;;;;;;4920009;29;20067;-73
2022/03/22 07:47:38;;;;;;;10.13;3.45;;;26.10;95.60;;;;;;4937377;29;20031;-77
2022/03/22 07:53:07;;;;;;;10.10;3.03;;;26.00;96.10;;;;;;4937124;29;20530;-76
2022/03/22 07:55:37;;;;;;;14.55;3.05;;;26.00;96.30;;;;;;4936236;29;20024;-76
2022/03/22 07:58:06;;;;;;;11.65;3.00;;;25.90;96.70;;;;;;4936247;29;20768;-77
2022/03/22 08:00:35;;;;;;;10.15;2.95;;;25.90;96.60;;;;;;4936702;29;20480;-74
2022/03/22 08:03:05;;;;;;;9.25;3.30;;;25.80;96.70;;;;;;4936565;29;20035;-75
2022/03/22 08:05:35;;;;;;;10.07;3.03;;;25.70;97.10;;;;;;4936746;29;20026;-79
2022/03/22 08:08:03;;;;;;;10.77;3.20;;;25.60;97.40;;;;;;4936770;29;20027;-77
2022/03/22 08:10:32;;;;;;;7.10;2.35;;;25.60;97.50;;;;;;4919540;29;20038;-77
2022/03/22 08:13:00;;;;;;;10.07;3.17;;;25.50;97.70;;;;;;4936873;29;20032;-75
2022/03/22 08:15:28;;;;;;;12.45;4.10;;;25.40;97.90;;;;;;4919122;29;20416;-75
2022/03/22 08:17:56;;;;;;;13.77;3.50;;;25.30;98.20;;;;;;4936784;29;20024;-75
2022/03/22 08:20:27;;;;;;;11.10;3.38;;;25.30;98.40;;;;;;4936421;29;20107;-76
2022/03/22 08:22:58;;;;;;;14.97;3.90;;;25.30;98.70;;;;;;4919296;29;20065;-76
2022/03/22 08:25:27;;;;;;;14.60;4.15;;;25.20;98.70;;;;;;4918820;29;20282;-74
2022/03/22 08:27:57;;;;;;;11.70;3.50;;;25.20;98.90;;;;;;4936204;29;20023;-77
2022/03/22 08:30:25;;;;;;;12.18;3.30;;;25.20;99.00;;;;;;4917579;29;20032;-78
2022/03/22 08:32:56;;;;;;;16.58;3.58;;;25.20;99.10;;;;;;4919419;29;20485;-78
2022/03/22 08:35:24;;;;;;;12.65;3.60;;;25.20;99.10;;;;;;4935843;29;20020;-76
2022/03/22 08:37:52;;;;;;;11.43;3.42;;;25.10;99.20;;;;;;4935502;29;20016;-77
2022/03/22 08:40:20;;;;;;;10.13;2.92;;;25.10;99.40;;;;;;4935707;29;20473;-78
2022/03/22 08:42:52;;;;;;;10.73;3.15;;;25.00;99.50;;;;;;4936169;29;20039;-76
2022/03/22 08:45:22;;;;;;;12.00;3.80;;;25.00;99.60;;;;;;4918840;29;20503;-72
2022/03/22 08:47:51;;;;;;;15.38;3.15;;;24.90;99.90;;;;;;4918693;29;20366;-76
2022/03/22 08:50:21;;;;;;;15.93;4.07;;;24.90;99.90;;;;;;4935863;29;20035;-74
2022/03/22 08:52:50;;;;;;;12.88;3.92;;;24.90;99.90;;;;;;4919092;29;20059;-75
2022/03/22 08:55:19;;;;;;;17.83;3.67;;;24.80;99.90;;;;;;4919390;29;20388;-75
2022/03/22 08:57:48;;;;;;;14.95;4.03;;;24.80;99.90;;;;;;4937172;29;20024;-77
2022/03/22 09:00:17;;;;;;;13.55;3.88;;;24.80;99.90;;;;;;4935438;29;20038;-77
2022/03/22 09:02:47;;;;;;;13.77;3.92;;;24.80;99.90;;;;;;4922670;29;20030;-77
2022/03/22 09:08:02;;;;;;;18.08;3.50;;;24.70;99.90;;;;;;4935941;29;20166;-78
2022/03/22 09:10:30;;;;;;;15.98;4.40;;;24.60;99.90;;;;;;4935203;29;20523;-76
2022/03/22 09:12:58;;;;;;;13.65;3.80;;;24.60;99.90;;;;;;4935161;29;20034;-76
2022/03/22 09:15:27;;;;;;;14.63;4.53;;;24.50;99.90;;;;;;4919810;29;20048;-76
2022/03/22 09:17:56;;;;;;;14.52;3.55;;;24.50;99.90;;;;;;4917880;29;20396;-77
2022/03/22 09:20:25;;;;;;;19.23;4.22;;;24.40;99.90;;;;;;4918123;29;20023;-77
2022/03/22 09:22:53;;;;;;;14.23;3.45;;;24.40;99.90;;;;;;4918542;29;20032;-78
2022/03/22 09:25:24;;;;;;;14.70;4.22;;;24.40;99.90;;;;;;4917052;29;20496;-77
2022/03/22 09:27:52;;;;;;;10.30;3.10;;;24.50;99.90;;;;;;4917689;29;20035;-77
2022/03/22 09:30:19;;;;;;;10.27;3.42;;;24.50;99.90;;;;;;4917192;29;20024;-76
2022/03/22 09:32:47;;;;;;;16.95;4.22;;;24.40;99.90;;;;;;4934475;29;20451;-77
2022/03/22 09:35:19;;;;;;;11.77;3.67;;;24.40;99.90;;;;;;4917619;29;20087;-78
2022/03/22 09:37:48;;;;;;;14.15;3.40;;;24.30;99.90;;;;;;4917848;29;20059;-79
2022/03/22 09:40:18;;;;;;;14.93;3.08;;;24.30;99.90;;;;;;4916696;29;20035;-78
2022/03/22 09:42:47;;;;;;;13.20;3.90;;;24.30;99.90;;;;;;4916612;29;20028;-79
2022/03/22 09:45:24;;;;;;;11.70;3.22;;;24.30;99.90;;;;;;4916895;29;20034;-78
2022/03/22 09:47:51;;;;;;;14.77;4.40;;;24.30;99.90;;;;;;4916943;29;20027;-78
2022/03/22 09:50:20;;;;;;;12.27;3.90;;;24.30;99.90;;;;;;4917532;29;20039;-78
2022/03/22 09:52:48;;;;;;;16.75;4.05;;;24.20;99.90;;;;;;4934484;29;20437;-79
2022/03/22 09:55:17;;;;;;;9.43;2.95;;;24.30;99.90;;;;;;4932691;29;20024;-78
2022/03/22 09:57:44;;;;;;;12.38;3.40;;;24.30;99.90;;;;;;4915221;29;20024;-77
2022/03/22 10:00:15;;;;;;;11.88;3.13;;;24.30;99.90;;;;;;4916530;29;20028;-78
2022/03/22 10:02:42;;;;;;;12.93;4.05;;;24.30;99.90;;;;;;4917677;29;20034;-77
2022/03/22 10:05:23;;;;;;;15.55;3.67;;;24.20;99.90;;;;;;4934635;29;20058;-78
2022/03/22 10:08:09;;;;;;;16.80;4.88;;;24.20;99.90;;;;;;4916544;29;20424;-77
2022/03/22 10:10:52;;;;;;;12.25;3.40;;;24.20;99.90;;;;;;4916184;29;20028;-77
2022/03/22 10:13:19;;;;;;;10.90;3.80;;;24.10;99.90;;;;;;4933743;29;20574;-78
2022/03/22 10:15:46;;;;;;;11.45;4.05;;;24.10;99.90;;;;;;4916596;29;20082;-77
2022/03/22 10:18:14;;;;;;;12.20;3.53;;;24.10;99.90;;;;;;4915882;29;20032;-77
2022/03/22 10:20:42;;;;;;;10.27;3.28;;;24.10;99.90;;;;;;4916531;29;20031;-77
2022/03/22 10:23:10;;;;;;;11.50;3.38;;;24.10;99.90;;;;;;4917108;29;20035;-78
2022/03/22 10:25:42;;;;;;;11.30;2.88;;;24.00;99.90;;;;;;4916866;29;20086;-77
2022/03/22 10:28:10;;;;;;;9.95;4.20;;;24.00;99.90;;;;;;4917188;29;20460;-77
2022/03/22 10:30:38;;;;;;;13.35;3.63;;;24.00;99.90;;;;;;4917242;29;20062;-77
2022/03/22 10:33:06;;;;;;;9.77;3.58;;;23.90;99.90;;;;;;4915964;29;20067;-78
2022/03/22 10:35:38;;;;;;;10.55;3.53;;;23.90;99.90;;;;;;4917097;29;20038;-78
2022/03/22 10:38:05;;;;;;;;;;;23.90;99.90;;;;;;4917569;29;20035;-77
2022/03/22 10:40:36;;;;;;;13.90;4.78;;;23.90;99.90;;;;;;4932988;29;19907;-78
2022/03/22 10:43:07;;;;;;;9.23;3.17;;;23.90;99.90;;;;;;4933874;29;20024;-78
2022/03/22 10:46:01;;;;;;;14.80;4.13;;;23.90;99.90;;;;;;4933953;29;20020;-79
2022/03/22 10:48:37;;;;;;;13.45;3.40;;;23.90;99.90;;;;;;4933719;29;20066;-77
2022/03/22 10:51:06;;;;;;;14.35;5.53;;;23.90;99.90;;;;;;4927438;29;20545;-78
2022/03/22 10:53:35;;;;;;;12.15;3.90;;;23.90;99.90;;;;;;4907528;29;20104;-78
2022/03/22 10:56:04;;;;;;;15.77;4.53;;;23.90;99.90;;;;;;4905578;29;20024;-78
2022/03/22 10:58:34;;;;;;;13.23;3.63;;;23.80;99.90;;;;;;4909105;29;20019;-78
2022/03/22 11:01:06;;;;;;;10.82;3.40;;;23.80;99.90;;;;;;4909155;29;20024;-77
2022/03/22 11:03:34;;;;;;;13.40;3.67;;;23.80;99.90;;;;;;4910140;29;20421;-78
2022/03/22 11:06:04;;;;;;;13.07;3.53;;;23.80;99.90;;;;;;4928317;29;20042;-77
2022/03/22 11:08:31;;;;;;;9.68;3.72;;;23.70;99.90;;;;;;4909690;29;20065;-78
2022/03/22 11:10:59;;;;;;;8.88;3.80;;;23.70;99.90;;;;;;4908896;29;20425;-76
2022/03/22 11:13:27;;;;;;;11.65;3.95;;;23.70;99.90;;;;;;4925845;29;20484;-78
2022/03/22 11:15:56;;;;;;;11.45;4.05;;;23.70;99.90;;;;;;4924858;29;20095;-78
2022/03/22 11:18:27;;;;;;;15.18;4.38;;;23.70;99.90;;;;;;4909273;29;20027;-78
2022/03/22 11:21:05;;;;;;;10.32;3.75;;;23.60;99.90;;;;;;4910463;29;20500;-78
2022/03/22 11:23:34;;;;;;;16.48;4.50;;;23.60;99.90;;;;;;4924495;29;20084;-78
2022/03/22 11:26:08;;;;;;;10.60;3.17;;;23.60;99.90;;;;;;4909049;29;20028;-78
2022/03/22 11:28:36;;;;;;;9.82;3.67;;;23.60;99.90;;;;;;4915304;29;20056;-78
2022/03/22 11:31:05;;;;;;;10.00;3.83;;;23.60;99.90;;;;;;4909986;29;20500;-79
2022/03/22 11:36:20;;;;;;;12.15;3.33;;;23.60;99.90;;;;;;4926066;29;20042;-78
2022/03/22 11:38:59;;;;;;;10.73;3.40;;;23.50;99.90;;;;;;4908261;29;20179;-77
2022/03/22 11:44:36;;;;;;;13.93;3.65;;;23.50;99.90;;;;;;4926513;29;20062;-78
2022/03/22 11:47:19;;;;;;;8.30;3.55;;;23.50;99.90;;;;;;4926243;29;20036;-78
2022/03/22 11:49:55;;;;;;;13.98;4.75;;;23.40;99.90;;;;;;4927178;29;20042;-77
2022/03/22 11:52:29;;;;;;;10.13;3.40;;;23.40;99.90;;;;;;4925971;29;20028;-77
2022/03/22 11:55:00;;;;;;;10.85;3.75;;;23.40;99.90;;;;;;4909084;29;20051;-78
2022/03/22 11:57:39;;;;;;;11.35;3.33;;;23.30;99.90;;;;;;4907917;29;20499;-78
2022/03/22 12:00:07;;;;;;;8.85;3.90;;;23.30;99.90;;;;;;4909588;29;20032;-78
2022/03/22 12:02:39;;;;;;;8.48;3.10;;;23.30;99.90;;;;;;4923572;29;20028;-77
2022/03/22 12:05:07;;;;;;;9.88;3.78;;;23.30;99.90;;;;;;4924314;29;20138;-77
2022/03/22 12:07:37;;;;;;;13.57;3.90;;;23.30;99.90;;;;;;4908100;29;20060;-77
2022/03/22 12:10:14;;;;;;;12.85;3.20;;;23.20;99.90;;;;;;4926615;29;20055;-78
2022/03/22 12:12:50;;;;;;;9.45;3.22;;;23.30;99.90;;;;;;4907166;29;20384;-78
2022/03/22 12:15:21;;;;;;;16.10;3.67;;;23.30;99.90;;;;;;4925344;29;20047;-78
2022/03/22 12:17:49;;;;;;;10.77;3.40;;;23.30;99.90;;;;;;4908051;29;20449;-78
2022/03/22 12:20:19;;;;;;;8.38;3.30;;;23.20;99.90;;;;;;4925174;29;20103;-78
2022/03/22 12:22:49;;;;;;;12.40;3.67;;;23.30;99.90;;;;;;4924965;29;20373;-78
2022/03/22 12:25:19;;;;;;;9.85;3.80;;;23.20;99.90;;;;;;4925327;29;20019;-77
2022/03/22 12:27:53;;;;;;;11.15;3.63;;;23.30;99.90;;;;;;4924969;29;20098;-79
2022/03/22 12:30:22;;;;;;;8.65;3.70;;;23.30;99.90;;;;;;4925457;29;20020;-79
2022/03/22 12:32:57;;;;;;;10.45;4.82;;;23.20;99.90;;;;;;4924260;29;20572;-79
2022/03/22 12:35:25;;;;;;;8.98;3.35;;;23.20;99.90;;;;;;4925051;29;20043;-78
2022/03/22 12:37:53;;;;;;;7.70;3.78;;;23.20;99.90;;;;;;4926425;29;20438;-78
2022/03/22 12:40:22;;;;;;;8.02;3.45;;;23.10;99.90;;;;;;4925268;29;20024;-79
2022/03/22 12:42:50;;;;;;;8.27;3.97;;;23.10;99.90;;;;;;4924283;29;20143;-76
2022/03/22 12:45:19;;;;;;;11.30;4.32;;;23.10;99.90;;;;;;4925595;29;20487;-78
2022/03/22 12:47:48;;;;;;;11.02;3.78;;;23.10;99.90;;;;;;4925682;29;20494;-76
2022/03/22 12:50:18;;;;;;;10.50;3.20;;;23.10;99.90;;;;;;4924305;29;20466;-77
2022/03/22 12:52:46;;;;;;;11.15;4.07;;;23.00;99.90;;;;;;4924584;29;20035;-76
2022/03/22 12:55:15;;;;;;;7.50;3.72;;;23.00;99.90;;;;;;4908859;29;20036;-77
2022/03/22 12:57:46;;;;;;;10.50;3.78;;;22.90;99.90;;;;;;4924910;29;20016;-76
2022/03/22 13:00:27;;;;;;;11.63;5.53;;;22.90;99.90;;;;;;4924033;29;20024;-76
2022/03/22 13:02:55;;;;;;;9.30;5.32;;;22.90;99.90;;;;;;4924104;29;20080;-77
2022/03/22 13:05:29;;;;;;;9.95;4.70;;;22.80;99.90;;;;;;4924631;29;20019;-77
2022/03/22 13:08:00;;;;;;;11.98;6.38;;;22.80;99.90;;;;;;4924020;29;20052;-77
2022/03/22 13:13:18;;;;;;;8.13;4.50;;;22.70;99.90;;;;;;4925303;29;20031;-77
2022/03/22 13:15:52;;;;;;;11.32;4.90;;;22.60;99.90;;;;;;4925010;29;20075;-76
2022/03/22 13:18:20;;;;;;;12.43;4.70;;;22.60;99.90;;;;;;4924081;29;20099;-76
2022/03/22 13:20:48;;;;;;;8.82;3.83;;;22.60;99.90;;;;;;4906310;29;20020;-76
2022/03/22 13:23:18;;;;;;;8.15;3.83;;;22.50;99.90;;;;;;4929520;29;20059;-77
2022/03/22 13:25:52;;;;;;;9.07;3.88;;;22.50;99.90;;;;;;4928875;29;20106;-76
2022/03/22 13:28:19;;;;;;;8.15;3.10;;;22.50;99.90;;;;;;4917917;29;20380;-76